sensor_id;sensor_type;location;lat;lon;timestamp;temperature;humidity
23681;DHT22;62915;50.832;4.462;2023-08-06T00:00:42;16.30;99.90
23681;DHT22;62915;50.832;4.462;2023-08-06T00:03:08;16.40;99.90
23681;DHT22;62915;50.832;4.462;2023-08-06T00:05:33;16.50;99.90
23681;DHT22;62915;50.832;4.462;2023-08-06T00:07:59;16.60;99.90
23681;DHT22;62915;50.832;4.462;2023-08-06T00:10:25;16.60;99.90
23681;DHT22;62915;50.832;4.462;2023-08-06T00:12:50;16.60;99.90
23681;DHT22;62915;50.832;4.462;2023-08-06T00:15:16;16.60;99.90
23681;DHT22;62915;50.832;4.462;2023-08-06T00:17:43;16.70;99.90
23681;DHT22;62915;50.832;4.462;2023-08-06T00:20:10;16.80;99.90
23681;DHT22;62915;50.832;4.462;2023-08-06T00:22:37;16.70;99.90
23681;DHT22;62915;50.832;4.462;2023-08-06T00:25:03;16.70;99.90
23681;DHT22;62915;50.832;4.462;2023-08-06T00:27:29;16.70;99.90
23681;DHT22;62915;50.832;4.462;2023-08-06T00:29:55;16.80;99.90
23681;DHT22;62915;50.832;4.462;2023-08-06T00:32:22;16.80;99.90
23681;DHT22;62915;50.832;4.462;2023-08-06T00:34:48;16.80;99.90
23681;DHT22;62915;50.832;4.462;2023-08-06T00:37:18;16.70;99.90
23681;DHT22;62915;50.832;4.462;2023-08-06T00:39:44;16.70;99.90
23681;DHT22;62915;50.832;4.462;2023-08-06T00:42:11;16.70;99.90
23681;DHT22;62915;50.832;4.462;2023-08-06T00:44:37;16.80;99.90
23681;DHT22;62915;50.832;4.462;2023-08-06T00:47:04;16.80;99.90
23681;DHT22;62915;50.832;4.462;2023-08-06T00:49:30;16.80;99.90
23681;DHT22;62915;50.832;4.462;2023-08-06T00:51:56;16.90;99.90
23681;DHT22;62915;50.832;4.462;2023-08-06T00:54:23;16.90;99.90
23681;DHT22;62915;50.832;4.462;2023-08-06T00:56:50;16.80;99.90
23681;DHT22;62915;50.832;4.462;2023-08-06T00:59:16;16.80;99.90
23681;DHT22;62915;50.832;4.462;2023-08-06T01:01:42;16.80;99.90
23681;DHT22;62915;50.832;4.462;2023-08-06T01:04:08;16.90;99.90
23681;DHT22;62915;50.832;4.462;2023-08-06T01:06:48;17.00;99.90
23681;DHT22;62915;50.832;4.462;2023-08-06T01:17:15;16.90;99.90
23681;DHT22;62915;50.832;4.462;2023-08-06T01:19:43;17.00;99.90
23681;DHT22;62915;50.832;4.462;2023-08-06T01:22:09;16.90;99.90
23681;DHT22;62915;50.832;4.462;2023-08-06T01:24:35;16.90;99.90
23681;DHT22;62915;50.832;4.462;2023-08-06T01:27:09;16.90;99.90
23681;DHT22;62915;50.832;4.462;2023-08-06T01:29:45;16.90;99.90
23681;DHT22;62915;50.832;4.462;2023-08-06T01:32:14;16.90;99.90
23681;DHT22;62915;50.832;4.462;2023-08-06T01:34:43;16.80;99.90
23681;DHT22;62915;50.832;4.462;2023-08-06T01:37:11;16.70;99.90
23681;DHT22;62915;50.832;4.462;2023-08-06T01:39:37;16.70;99.90
23681;DHT22;62915;50.832;4.462;2023-08-06T01:42:06;16.70;99.90
23681;DHT22;62915;50.832;4.462;2023-08-06T01:44:33;16.70;99.90
23681;DHT22;62915;50.832;4.462;2023-08-06T01:46:58;16.70;99.90
23681;DHT22;62915;50.832;4.462;2023-08-06T01:49:24;16.80;99.90
23681;DHT22;62915;50.832;4.462;2023-08-06T01:51:52;16.80;99.90
23681;DHT22;62915;50.832;4.462;2023-08-06T01:54:18;16.80;99.90
23681;DHT22;62915;50.832;4.462;2023-08-06T01:56:43;16.80;99.90
23681;DHT22;62915;50.832;4.462;2023-08-06T01:59:09;16.80;99.90
23681;DHT22;62915;50.832;4.462;2023-08-06T02:01:35;16.90;99.90
23681;DHT22;62915;50.832;4.462;2023-08-06T02:04:01;16.90;99.90
23681;DHT22;62915;50.832;4.462;2023-08-06T02:06:27;16.80;99.90
23681;DHT22;62915;50.832;4.462;2023-08-06T02:08:52;16.70;99.90
23681;DHT22;62915;50.832;4.462;2023-08-06T02:11:18;16.70;99.90
23681;DHT22;62915;50.832;4.462;2023-08-06T02:13:45;16.80;99.90
23681;DHT22;62915;50.832;4.462;2023-08-06T02:16:11;16.80;99.90
23681;DHT22;62915;50.832;4.462;2023-08-06T02:18:37;16.80;99.90
23681;DHT22;62915;50.832;4.462;2023-08-06T02:21:03;16.70;99.90
23681;DHT22;62915;50.832;4.462;2023-08-06T02:23:28;16.70;99.90
23681;DHT22;62915;50.832;4.462;2023-08-06T02:26:05;16.60;99.90
23681;DHT22;62915;50.832;4.462;2023-08-06T02:28:31;16.70;99.90
23681;DHT22;62915;50.832;4.462;2023-08-06T02:30:57;16.60;99.90
23681;DHT22;62915;50.832;4.462;2023-08-06T02:33:23;16.60;99.90
23681;DHT22;62915;50.832;4.462;2023-08-06T02:35:49;16.60;99.90
23681;DHT22;62915;50.832;4.462;2023-08-06T02:38:15;16.50;99.90
23681;DHT22;62915;50.832;4.462;2023-08-06T02:40:47;16.50;99.90
23681;DHT22;62915;50.832;4.462;2023-08-06T02:43:13;16.60;99.90
23681;DHT22;62915;50.832;4.462;2023-08-06T02:45:40;16.70;99.90
23681;DHT22;62915;50.832;4.462;2023-08-06T02:48:05;16.60;99.90
23681;DHT22;62915;50.832;4.462;2023-08-06T02:50:38;16.40;99.90
23681;DHT22;62915;50.832;4.462;2023-08-06T02:53:05;16.60;99.90
23681;DHT22;62915;50.832;4.462;2023-08-06T02:55:31;16.50;99.90
23681;DHT22;62915;50.832;4.462;2023-08-06T02:57:57;16.60;99.90
23681;DHT22;62915;50.832;4.462;2023-08-06T03:00:22;16.60;99.90
23681;DHT22;62915;50.832;4.462;2023-08-06T03:02:48;16.60;99.90
23681;DHT22;62915;50.832;4.462;2023-08-06T03:05:14;16.60;99.90
23681;DHT22;62915;50.832;4.462;2023-08-06T03:07:40;16.60;99.90
23681;DHT22;62915;50.832;4.462;2023-08-06T03:10:06;16.70;99.90
23681;DHT22;62915;50.832;4.462;2023-08-06T03:12:32;16.70;99.90
23681;DHT22;62915;50.832;4.462;2023-08-06T03:14:57;16.80;99.90
23681;DHT22;62915;50.832;4.462;2023-08-06T03:17:23;16.80;99.90
23681;DHT22;62915;50.832;4.462;2023-08-06T03:19:49;16.60;99.90
23681;DHT22;62915;50.832;4.462;2023-08-06T03:22:14;16.70;99.90
23681;DHT22;62915;50.832;4.462;2023-08-06T03:24:40;16.70;99.90
23681;DHT22;62915;50.832;4.462;2023-08-06T03:27:07;16.60;99.90
23681;DHT22;62915;50.832;4.462;2023-08-06T03:29:33;16.60;99.90
23681;DHT22;62915;50.832;4.462;2023-08-06T03:31:59;16.60;99.90
23681;DHT22;62915;50.832;4.462;2023-08-06T03:34:25;16.50;99.90
23681;DHT22;62915;50.832;4.462;2023-08-06T03:36:53;16.60;99.90
23681;DHT22;62915;50.832;4.462;2023-08-06T03:39:19;16.60;99.90
23681;DHT22;62915;50.832;4.462;2023-08-06T03:41:44;16.50;99.90
23681;DHT22;62915;50.832;4.462;2023-08-06T03:44:10;16.50;99.90
23681;DHT22;62915;50.832;4.462;2023-08-06T03:46:36;16.60;99.90
23681;DHT22;62915;50.832;4.462;2023-08-06T03:49:02;16.50;99.90
23681;DHT22;62915;50.832;4.462;2023-08-06T03:51:28;16.50;99.90
23681;DHT22;62915;50.832;4.462;2023-08-06T03:53:54;16.60;99.90
23681;DHT22;62915;50.832;4.462;2023-08-06T03:56:20;16.60;99.90
23681;DHT22;62915;50.832;4.462;2023-08-06T03:58:46;16.70;99.90
23681;DHT22;62915;50.832;4.462;2023-08-06T04:01:12;16.70;99.90
23681;DHT22;62915;50.832;4.462;2023-08-06T04:03:38;16.60;99.90
23681;DHT22;62915;50.832;4.462;2023-08-06T04:06:03;16.70;99.90
23681;DHT22;62915;50.832;4.462;2023-08-06T04:08:29;16.60;99.90
23681;DHT22;62915;50.832;4.462;2023-08-06T04:10:55;16.50;99.90
23681;DHT22;62915;50.832;4.462;2023-08-06T04:13:21;16.40;99.90
23681;DHT22;62915;50.832;4.462;2023-08-06T04:15:47;16.40;99.90
23681;DHT22;62915;50.832;4.462;2023-08-06T04:18:13;16.30;99.90
23681;DHT22;62915;50.832;4.462;2023-08-06T04:20:43;16.20;99.90
23681;DHT22;62915;50.832;4.462;2023-08-06T04:23:10;16.20;99.90
23681;DHT22;62915;50.832;4.462;2023-08-06T04:25:36;16.00;99.90
23681;DHT22;62915;50.832;4.462;2023-08-06T04:28:01;16.00;99.90
23681;DHT22;62915;50.832;4.462;2023-08-06T04:30:27;16.00;99.90
23681;DHT22;62915;50.832;4.462;2023-08-06T04:32:53;15.90;99.90
23681;DHT22;62915;50.832;4.462;2023-08-06T04:35:19;15.70;99.90
23681;DHT22;62915;50.832;4.462;2023-08-06T04:37:45;15.60;99.90
23681;DHT22;62915;50.832;4.462;2023-08-06T04:40:12;15.60;99.90
23681;DHT22;62915;50.832;4.462;2023-08-06T04:42:38;15.50;99.90
23681;DHT22;62915;50.832;4.462;2023-08-06T04:45:04;15.40;99.90
23681;DHT22;62915;50.832;4.462;2023-08-06T04:47:30;15.40;99.90
23681;DHT22;62915;50.832;4.462;2023-08-06T04:49:56;15.30;99.90
23681;DHT22;62915;50.832;4.462;2023-08-06T04:52:23;15.10;99.90
23681;DHT22;62915;50.832;4.462;2023-08-06T04:54:53;15.00;99.90
23681;DHT22;62915;50.832;4.462;2023-08-06T04:57:18;15.00;99.90
23681;DHT22;62915;50.832;4.462;2023-08-06T04:59:45;14.80;99.90
23681;DHT22;62915;50.832;4.462;2023-08-06T05:02:12;14.80;99.90
23681;DHT22;62915;50.832;4.462;2023-08-06T05:04:38;14.80;99.90
23681;DHT22;62915;50.832;4.462;2023-08-06T05:07:06;14.80;99.90
23681;DHT22;62915;50.832;4.462;2023-08-06T05:09:31;14.70;99.90
23681;DHT22;62915;50.832;4.462;2023-08-06T05:11:57;14.80;99.90
23681;DHT22;62915;50.832;4.462;2023-08-06T05:14:23;14.70;99.90
23681;DHT22;62915;50.832;4.462;2023-08-06T05:16:49;14.70;99.90
23681;DHT22;62915;50.832;4.462;2023-08-06T05:19:14;14.70;99.90
23681;DHT22;62915;50.832;4.462;2023-08-06T05:21:40;14.70;99.90
23681;DHT22;62915;50.832;4.462;2023-08-06T05:24:06;14.80;99.90
23681;DHT22;62915;50.832;4.462;2023-08-06T05:26:32;14.80;99.90
23681;DHT22;62915;50.832;4.462;2023-08-06T05:28:57;14.90;99.90
23681;DHT22;62915;50.832;4.462;2023-08-06T05:31:23;14.90;99.90
23681;DHT22;62915;50.832;4.462;2023-08-06T05:33:50;14.90;99.90
23681;DHT22;62915;50.832;4.462;2023-08-06T05:36:16;14.90;99.90
23681;DHT22;62915;50.832;4.462;2023-08-06T05:38:43;14.90;99.90
23681;DHT22;62915;50.832;4.462;2023-08-06T05:41:09;15.00;99.90
23681;DHT22;62915;50.832;4.462;2023-08-06T05:43:34;15.00;99.90
23681;DHT22;62915;50.832;4.462;2023-08-06T05:46:00;15.00;99.90
23681;DHT22;62915;50.832;4.462;2023-08-06T05:48:26;15.10;99.90
23681;DHT22;62915;50.832;4.462;2023-08-06T05:50:53;15.10;99.90
23681;DHT22;62915;50.832;4.462;2023-08-06T05:53:19;15.00;99.90
23681;DHT22;62915;50.832;4.462;2023-08-06T05:55:45;15.00;99.90
23681;DHT22;62915;50.832;4.462;2023-08-06T05:58:11;15.20;99.90
23681;DHT22;62915;50.832;4.462;2023-08-06T06:00:36;15.10;99.90
23681;DHT22;62915;50.832;4.462;2023-08-06T06:03:02;15.20;99.90
23681;DHT22;62915;50.832;4.462;2023-08-06T06:05:28;15.30;99.90
23681;DHT22;62915;50.832;4.462;2023-08-06T06:07:54;15.20;99.90
23681;DHT22;62915;50.832;4.462;2023-08-06T06:10:20;15.40;99.90
23681;DHT22;62915;50.832;4.462;2023-08-06T06:12:46;15.40;99.90
23681;DHT22;62915;50.832;4.462;2023-08-06T06:15:11;15.50;99.90
23681;DHT22;62915;50.832;4.462;2023-08-06T06:17:37;15.50;99.90
23681;DHT22;62915;50.832;4.462;2023-08-06T06:20:04;15.30;99.90
23681;DHT22;62915;50.832;4.462;2023-08-06T06:22:30;15.20;99.90
23681;DHT22;62915;50.832;4.462;2023-08-06T06:24:56;15.30;99.90
23681;DHT22;62915;50.832;4.462;2023-08-06T06:27:22;15.30;99.90
23681;DHT22;62915;50.832;4.462;2023-08-06T06:29:47;15.40;99.90
23681;DHT22;62915;50.832;4.462;2023-08-06T06:32:13;15.40;99.90
23681;DHT22;62915;50.832;4.462;2023-08-06T06:34:39;15.40;99.90
23681;DHT22;62915;50.832;4.462;2023-08-06T06:37:05;15.40;99.90
23681;DHT22;62915;50.832;4.462;2023-08-06T06:39:30;15.70;99.90
23681;DHT22;62915;50.832;4.462;2023-08-06T06:41:56;15.60;99.90
23681;DHT22;62915;50.832;4.462;2023-08-06T06:44:22;15.70;99.90
23681;DHT22;62915;50.832;4.462;2023-08-06T06:46:48;15.70;99.90
23681;DHT22;62915;50.832;4.462;2023-08-06T06:49:13;15.70;99.90
23681;DHT22;62915;50.832;4.462;2023-08-06T06:51:39;15.70;99.90
23681;DHT22;62915;50.832;4.462;2023-08-06T06:54:05;15.80;99.90
23681;DHT22;62915;50.832;4.462;2023-08-06T06:56:30;15.80;99.90
23681;DHT22;62915;50.832;4.462;2023-08-06T06:58:56;15.80;99.90
23681;DHT22;62915;50.832;4.462;2023-08-06T07:01:22;15.80;99.90
23681;DHT22;62915;50.832;4.462;2023-08-06T07:03:48;15.90;99.90
23681;DHT22;62915;50.832;4.462;2023-08-06T07:06:13;15.90;99.90
23681;DHT22;62915;50.832;4.462;2023-08-06T07:08:41;15.80;99.90
23681;DHT22;62915;50.832;4.462;2023-08-06T07:11:07;15.90;99.90
23681;DHT22;62915;50.832;4.462;2023-08-06T07:13:34;15.80;99.90
23681;DHT22;62915;50.832;4.462;2023-08-06T07:16:00;15.80;99.90
23681;DHT22;62915;50.832;4.462;2023-08-06T07:18:26;15.80;99.90
23681;DHT22;62915;50.832;4.462;2023-08-06T07:20:53;15.70;99.90
23681;DHT22;62915;50.832;4.462;2023-08-06T07:23:24;15.70;99.90
23681;DHT22;62915;50.832;4.462;2023-08-06T07:25:51;15.70;99.90
23681;DHT22;62915;50.832;4.462;2023-08-06T07:28:17;15.60;99.90
23681;DHT22;62915;50.832;4.462;2023-08-06T07:30:43;15.50;99.90
23681;DHT22;62915;50.832;4.462;2023-08-06T07:33:09;15.40;99.90
23681;DHT22;62915;50.832;4.462;2023-08-06T07:35:35;15.40;99.90
23681;DHT22;62915;50.832;4.462;2023-08-06T07:38:02;15.50;99.90
23681;DHT22;62915;50.832;4.462;2023-08-06T07:40:28;15.40;99.90
23681;DHT22;62915;50.832;4.462;2023-08-06T07:42:54;15.20;99.90
23681;DHT22;62915;50.832;4.462;2023-08-06T07:45:20;15.20;99.90
23681;DHT22;62915;50.832;4.462;2023-08-06T07:47:46;15.30;99.90
23681;DHT22;62915;50.832;4.462;2023-08-06T07:50:12;15.40;99.90
23681;DHT22;62915;50.832;4.462;2023-08-06T07:52:38;15.40;99.90
23681;DHT22;62915;50.832;4.462;2023-08-06T07:55:04;15.40;99.90
23681;DHT22;62915;50.832;4.462;2023-08-06T07:57:33;15.50;99.90
23681;DHT22;62915;50.832;4.462;2023-08-06T08:00:00;15.60;99.90
23681;DHT22;62915;50.832;4.462;2023-08-06T08:02:26;15.70;99.90
23681;DHT22;62915;50.832;4.462;2023-08-06T08:04:52;15.80;99.90
23681;DHT22;62915;50.832;4.462;2023-08-06T08:07:18;15.70;99.90
23681;DHT22;62915;50.832;4.462;2023-08-06T08:09:44;15.70;99.90
23681;DHT22;62915;50.832;4.462;2023-08-06T08:12:09;15.80;99.90
23681;DHT22;62915;50.832;4.462;2023-08-06T08:14:35;15.90;99.90
23681;DHT22;62915;50.832;4.462;2023-08-06T08:17:03;15.90;99.90
23681;DHT22;62915;50.832;4.462;2023-08-06T08:19:29;15.90;99.90
23681;DHT22;62915;50.832;4.462;2023-08-06T08:21:55;16.00;99.90
23681;DHT22;62915;50.832;4.462;2023-08-06T08:24:21;16.10;99.90
23681;DHT22;62915;50.832;4.462;2023-08-06T08:26:53;16.10;99.90
23681;DHT22;62915;50.832;4.462;2023-08-06T08:29:22;16.10;99.90
23681;DHT22;62915;50.832;4.462;2023-08-06T08:31:49;16.20;99.90
23681;DHT22;62915;50.832;4.462;2023-08-06T08:34:18;16.10;99.90
23681;DHT22;62915;50.832;4.462;2023-08-06T08:36:44;16.00;99.90
23681;DHT22;62915;50.832;4.462;2023-08-06T08:39:12;15.90;99.90
23681;DHT22;62915;50.832;4.462;2023-08-06T08:41:39;15.90;99.90
23681;DHT22;62915;50.832;4.462;2023-08-06T08:44:15;15.80;99.90
23681;DHT22;62915;50.832;4.462;2023-08-06T08:46:43;15.80;99.90
23681;DHT22;62915;50.832;4.462;2023-08-06T08:49:11;15.70;99.90
23681;DHT22;62915;50.832;4.462;2023-08-06T08:51:37;15.70;99.90
23681;DHT22;62915;50.832;4.462;2023-08-06T08:54:03;15.70;99.90
23681;DHT22;62915;50.832;4.462;2023-08-06T08:56:30;15.80;99.90
23681;DHT22;62915;50.832;4.462;2023-08-06T08:58:56;15.80;99.90
23681;DHT22;62915;50.832;4.462;2023-08-06T09:01:22;15.70;99.90
23681;DHT22;62915;50.832;4.462;2023-08-06T09:03:48;15.70;99.90
23681;DHT22;62915;50.832;4.462;2023-08-06T09:06:15;15.70;99.90
23681;DHT22;62915;50.832;4.462;2023-08-06T09:08:50;15.80;99.90
23681;DHT22;62915;50.832;4.462;2023-08-06T09:11:17;15.70;99.90
23681;DHT22;62915;50.832;4.462;2023-08-06T09:13:46;15.80;99.90
23681;DHT22;62915;50.832;4.462;2023-08-06T09:16:12;15.80;99.90
23681;DHT22;62915;50.832;4.462;2023-08-06T09:18:39;15.90;99.90
23681;DHT22;62915;50.832;4.462;2023-08-06T09:21:06;15.90;99.90
23681;DHT22;62915;50.832;4.462;2023-08-06T09:23:38;15.80;99.90
23681;DHT22;62915;50.832;4.462;2023-08-06T09:26:04;15.90;99.90
23681;DHT22;62915;50.832;4.462;2023-08-06T09:28:38;15.90;99.90
23681;DHT22;62915;50.832;4.462;2023-08-06T09:31:04;15.80;99.90
23681;DHT22;62915;50.832;4.462;2023-08-06T09:33:30;15.80;99.90
23681;DHT22;62915;50.832;4.462;2023-08-06T09:35:56;15.70;99.90
23681;DHT22;62915;50.832;4.462;2023-08-06T09:38:22;15.70;99.90
23681;DHT22;62915;50.832;4.462;2023-08-06T09:40:47;15.80;99.90
23681;DHT22;62915;50.832;4.462;2023-08-06T09:43:14;15.60;99.90
23681;DHT22;62915;50.832;4.462;2023-08-06T09:45:41;15.40;99.90
23681;DHT22;62915;50.832;4.462;2023-08-06T09:48:09;15.20;99.90
23681;DHT22;62915;50.832;4.462;2023-08-06T09:50:37;15.30;99.90
23681;DHT22;62915;50.832;4.462;2023-08-06T09:53:05;15.20;99.90
23681;DHT22;62915;50.832;4.462;2023-08-06T09:55:32;15.20;99.90
23681;DHT22;62915;50.832;4.462;2023-08-06T09:57:58;15.20;99.90
23681;DHT22;62915;50.832;4.462;2023-08-06T10:00:24;15.30;99.90
23681;DHT22;62915;50.832;4.462;2023-08-06T10:02:52;15.40;99.90
23681;DHT22;62915;50.832;4.462;2023-08-06T10:05:22;15.40;99.90
23681;DHT22;62915;50.832;4.462;2023-08-06T10:07:49;15.50;99.90
23681;DHT22;62915;50.832;4.462;2023-08-06T10:10:16;15.60;99.90
23681;DHT22;62915;50.832;4.462;2023-08-06T10:12:47;15.40;99.90
23681;DHT22;62915;50.832;4.462;2023-08-06T10:15:16;15.40;99.90
23681;DHT22;62915;50.832;4.462;2023-08-06T10:17:43;15.40;99.90
23681;DHT22;62915;50.832;4.462;2023-08-06T10:20:11;15.40;99.90
23681;DHT22;62915;50.832;4.462;2023-08-06T10:22:45;15.50;99.90
23681;DHT22;62915;50.832;4.462;2023-08-06T10:25:16;15.50;99.90
23681;DHT22;62915;50.832;4.462;2023-08-06T10:32:58;15.60;99.90
23681;DHT22;62915;50.832;4.462;2023-08-06T10:38:12;15.40;99.90
23681;DHT22;62915;50.832;4.462;2023-08-06T10:43:27;15.60;99.90
23681;DHT22;62915;50.832;4.462;2023-08-06T10:45:54;15.40;99.90
23681;DHT22;62915;50.832;4.462;2023-08-06T10:48:35;15.40;99.90
23681;DHT22;62915;50.832;4.462;2023-08-06T10:51:02;15.50;99.90
23681;DHT22;62915;50.832;4.462;2023-08-06T10:53:29;15.50;99.90
23681;DHT22;62915;50.832;4.462;2023-08-06T10:55:55;15.50;99.90
23681;DHT22;62915;50.832;4.462;2023-08-06T10:58:20;15.50;99.90
23681;DHT22;62915;50.832;4.462;2023-08-06T11:00:46;15.40;99.90
23681;DHT22;62915;50.832;4.462;2023-08-06T11:03:12;15.50;99.90
23681;DHT22;62915;50.832;4.462;2023-08-06T11:05:39;15.40;99.90
23681;DHT22;62915;50.832;4.462;2023-08-06T11:08:05;15.50;99.90
23681;DHT22;62915;50.832;4.462;2023-08-06T11:10:33;15.70;99.90
23681;DHT22;62915;50.832;4.462;2023-08-06T11:13:03;15.70;99.90
23681;DHT22;62915;50.832;4.462;2023-08-06T11:15:30;15.70;99.90
23681;DHT22;62915;50.832;4.462;2023-08-06T11:17:56;15.70;99.90
23681;DHT22;62915;50.832;4.462;2023-08-06T11:20:22;15.70;99.90
23681;DHT22;62915;50.832;4.462;2023-08-06T11:22:48;15.70;99.90
23681;DHT22;62915;50.832;4.462;2023-08-06T11:25:14;15.70;99.90
23681;DHT22;62915;50.832;4.462;2023-08-06T11:27:39;15.80;99.90
23681;DHT22;62915;50.832;4.462;2023-08-06T11:30:06;15.90;99.90
23681;DHT22;62915;50.832;4.462;2023-08-06T11:32:32;15.80;99.90
23681;DHT22;62915;50.832;4.462;2023-08-06T11:34:59;15.80;99.90
23681;DHT22;62915;50.832;4.462;2023-08-06T11:37:24;15.80;99.90
23681;DHT22;62915;50.832;4.462;2023-08-06T11:39:51;15.80;99.90
23681;DHT22;62915;50.832;4.462;2023-08-06T11:42:17;15.70;99.90
23681;DHT22;62915;50.832;4.462;2023-08-06T11:44:43;15.70;99.90
23681;DHT22;62915;50.832;4.462;2023-08-06T11:47:16;15.60;99.90
23681;DHT22;62915;50.832;4.462;2023-08-06T11:49:44;15.40;99.90
23681;DHT22;62915;50.832;4.462;2023-08-06T11:52:17;15.30;99.90
23681;DHT22;62915;50.832;4.462;2023-08-06T11:54:46;15.30;99.90
23681;DHT22;62915;50.832;4.462;2023-08-06T11:57:12;15.40;99.90
23681;DHT22;62915;50.832;4.462;2023-08-06T11:59:39;15.40;99.90
23681;DHT22;62915;50.832;4.462;2023-08-06T12:02:08;15.40;99.90
23681;DHT22;62915;50.832;4.462;2023-08-06T12:05:01;15.40;99.90
23681;DHT22;62915;50.832;4.462;2023-08-06T12:07:29;15.40;99.90
23681;DHT22;62915;50.832;4.462;2023-08-06T12:09:56;15.40;99.90
23681;DHT22;62915;50.832;4.462;2023-08-06T12:12:22;15.30;99.90
23681;DHT22;62915;50.832;4.462;2023-08-06T12:14:48;15.40;99.90
23681;DHT22;62915;50.832;4.462;2023-08-06T12:17:14;15.40;99.90
23681;DHT22;62915;50.832;4.462;2023-08-06T12:19:41;15.40;99.90
23681;DHT22;62915;50.832;4.462;2023-08-06T12:22:07;15.50;99.90
23681;DHT22;62915;50.832;4.462;2023-08-06T12:24:34;15.60;99.90
23681;DHT22;62915;50.832;4.462;2023-08-06T12:27:03;15.70;99.90
23681;DHT22;62915;50.832;4.462;2023-08-06T12:29:29;15.80;99.90
23681;DHT22;62915;50.832;4.462;2023-08-06T12:31:56;15.90;99.90
23681;DHT22;62915;50.832;4.462;2023-08-06T12:34:22;15.90;99.90
23681;DHT22;62915;50.832;4.462;2023-08-06T12:36:48;15.90;99.90
23681;DHT22;62915;50.832;4.462;2023-08-06T12:39:14;15.90;99.90
23681;DHT22;62915;50.832;4.462;2023-08-06T12:41:41;16.00;99.90
23681;DHT22;62915;50.832;4.462;2023-08-06T12:44:09;16.00;99.90
23681;DHT22;62915;50.832;4.462;2023-08-06T12:46:35;15.90;99.90
23681;DHT22;62915;50.832;4.462;2023-08-06T12:49:01;16.00;99.90
23681;DHT22;62915;50.832;4.462;2023-08-06T12:51:26;16.00;99.90
23681;DHT22;62915;50.832;4.462;2023-08-06T12:53:52;16.00;99.90
23681;DHT22;62915;50.832;4.462;2023-08-06T12:56:19;16.00;99.90
23681;DHT22;62915;50.832;4.462;2023-08-06T12:58:46;16.00;99.90
23681;DHT22;62915;50.832;4.462;2023-08-06T13:01:12;16.10;99.90
23681;DHT22;62915;50.832;4.462;2023-08-06T13:03:37;16.10;99.90
23681;DHT22;62915;50.832;4.462;2023-08-06T13:06:03;16.10;99.90
23681;DHT22;62915;50.832;4.462;2023-08-06T13:08:29;16.00;99.90
23681;DHT22;62915;50.832;4.462;2023-08-06T13:10:55;16.10;99.90
23681;DHT22;62915;50.832;4.462;2023-08-06T13:13:20;16.00;99.90
23681;DHT22;62915;50.832;4.462;2023-08-06T13:15:46;16.10;99.90
23681;DHT22;62915;50.832;4.462;2023-08-06T13:18:12;16.10;99.90
23681;DHT22;62915;50.832;4.462;2023-08-06T13:20:39;16.30;99.90
23681;DHT22;62915;50.832;4.462;2023-08-06T13:23:08;16.20;99.90
23681;DHT22;62915;50.832;4.462;2023-08-06T13:25:34;16.10;99.90
23681;DHT22;62915;50.832;4.462;2023-08-06T13:28:02;15.90;99.90
23681;DHT22;62915;50.832;4.462;2023-08-06T13:30:28;15.80;99.90
23681;DHT22;62915;50.832;4.462;2023-08-06T13:32:54;15.70;99.90
23681;DHT22;62915;50.832;4.462;2023-08-06T13:35:22;15.70;99.90
23681;DHT22;62915;50.832;4.462;2023-08-06T13:37:48;15.60;99.90
23681;DHT22;62915;50.832;4.462;2023-08-06T13:40:15;15.70;99.90
23681;DHT22;62915;50.832;4.462;2023-08-06T13:42:40;15.70;99.90
23681;DHT22;62915;50.832;4.462;2023-08-06T13:45:07;15.70;99.90
23681;DHT22;62915;50.832;4.462;2023-08-06T13:47:33;15.80;99.90
23681;DHT22;62915;50.832;4.462;2023-08-06T13:49:59;15.70;99.90
23681;DHT22;62915;50.832;4.462;2023-08-06T13:52:27;15.70;99.90
23681;DHT22;62915;50.832;4.462;2023-08-06T13:54:53;15.70;99.90
23681;DHT22;62915;50.832;4.462;2023-08-06T13:57:19;15.70;99.90
23681;DHT22;62915;50.832;4.462;2023-08-06T13:59:45;15.80;99.90
23681;DHT22;62915;50.832;4.462;2023-08-06T14:02:10;15.90;99.90
23681;DHT22;62915;50.832;4.462;2023-08-06T14:04:36;15.80;99.90
23681;DHT22;62915;50.832;4.462;2023-08-06T14:07:05;15.70;99.90
23681;DHT22;62915;50.832;4.462;2023-08-06T14:09:31;15.70;99.90
23681;DHT22;62915;50.832;4.462;2023-08-06T14:11:57;15.70;99.90
23681;DHT22;62915;50.832;4.462;2023-08-06T14:14:22;15.50;99.90
23681;DHT22;62915;50.832;4.462;2023-08-06T14:16:52;15.40;99.90
23681;DHT22;62915;50.832;4.462;2023-08-06T14:19:18;15.40;99.90
23681;DHT22;62915;50.832;4.462;2023-08-06T14:21:44;15.40;99.90
23681;DHT22;62915;50.832;4.462;2023-08-06T14:24:10;15.40;99.90
23681;DHT22;62915;50.832;4.462;2023-08-06T14:26:36;15.40;99.90
23681;DHT22;62915;50.832;4.462;2023-08-06T14:29:03;15.40;99.90
23681;DHT22;62915;50.832;4.462;2023-08-06T14:31:29;15.40;99.90
23681;DHT22;62915;50.832;4.462;2023-08-06T14:33:55;15.40;99.90
23681;DHT22;62915;50.832;4.462;2023-08-06T14:36:21;15.40;99.90
23681;DHT22;62915;50.832;4.462;2023-08-06T14:38:47;15.50;99.90
23681;DHT22;62915;50.832;4.462;2023-08-06T14:41:13;15.50;99.90
23681;DHT22;62915;50.832;4.462;2023-08-06T14:43:39;15.50;99.90
23681;DHT22;62915;50.832;4.462;2023-08-06T14:46:05;15.60;99.90
23681;DHT22;62915;50.832;4.462;2023-08-06T14:48:31;15.50;99.90
23681;DHT22;62915;50.832;4.462;2023-08-06T14:50:56;15.50;99.90
23681;DHT22;62915;50.832;4.462;2023-08-06T14:53:22;15.40;99.90
23681;DHT22;62915;50.832;4.462;2023-08-06T14:55:48;15.40;99.90
23681;DHT22;62915;50.832;4.462;2023-08-06T14:58:14;15.60;99.90
23681;DHT22;62915;50.832;4.462;2023-08-06T15:00:41;15.60;99.90
23681;DHT22;62915;50.832;4.462;2023-08-06T15:03:07;15.50;99.90
23681;DHT22;62915;50.832;4.462;2023-08-06T15:05:33;15.60;99.90
23681;DHT22;62915;50.832;4.462;2023-08-06T15:07:59;15.60;99.90
23681;DHT22;62915;50.832;4.462;2023-08-06T15:10:25;15.50;99.90
23681;DHT22;62915;50.832;4.462;2023-08-06T15:12:51;15.70;99.90
23681;DHT22;62915;50.832;4.462;2023-08-06T15:15:16;15.60;99.90
23681;DHT22;62915;50.832;4.462;2023-08-06T15:17:42;15.70;99.90
23681;DHT22;62915;50.832;4.462;2023-08-06T15:20:08;15.70;99.90
23681;DHT22;62915;50.832;4.462;2023-08-06T15:22:35;15.70;99.90
23681;DHT22;62915;50.832;4.462;2023-08-06T15:25:01;15.50;99.90
23681;DHT22;62915;50.832;4.462;2023-08-06T15:27:29;15.50;99.90
23681;DHT22;62915;50.832;4.462;2023-08-06T15:29:55;15.30;99.90
23681;DHT22;62915;50.832;4.462;2023-08-06T15:32:21;15.10;99.90
23681;DHT22;62915;50.832;4.462;2023-08-06T15:34:48;14.90;99.90
23681;DHT22;62915;50.832;4.462;2023-08-06T15:37:14;14.70;99.90
23681;DHT22;62915;50.832;4.462;2023-08-06T15:39:39;14.70;99.90
23681;DHT22;62915;50.832;4.462;2023-08-06T15:42:06;14.70;99.90
23681;DHT22;62915;50.832;4.462;2023-08-06T15:44:32;14.70;99.90